Time;durP1;ratioP1;P1;durP2;ratioP2;P2;SDS_P1;SDS_P2;PMS_P1;PMS_P2;Temp;Humidity;BMP_temperature;BMP_pressure;BME280_temperature;BME280_humidity;BME280_pressure;Samples;Min_cycle;Max_cycle;Signal;HPM_P1;HPM_P2
2023/04/10 00:02:09;;;;;;;35.90;25.10;;;7.10;99.90;;;;;;5092598;28;20494;-50
2023/04/10 00:04:34;;;;;;;36.47;25.15;;;7.90;99.90;;;;;;5093517;28;20086;-50
2023/04/10 00:07:00;;;;;;;40.47;27.63;;;7.00;99.90;;;;;;5093152;28;20036;-51
2023/04/10 00:09:26;;;;;;;35.72;26.70;;;6.80;99.90;;;;;;5092393;28;20071;-52
2023/04/10 00:11:53;;;;;;;39.25;26.27;;;6.90;99.90;;;;;;5094134;28;20044;-51
2023/04/10 00:14:23;;;;;;;39.83;26.88;;;6.90;99.90;;;;;;5093123;28;20517;-52
2023/04/10 00:16:49;;;;;;;36.67;26.73;;;6.70;99.90;;;;;;5092923;28;20040;-53
2023/04/10 00:19:15;;;;;;;35.47;26.60;;;6.70;99.90;;;;;;5073158;28;20046;-50
2023/04/10 00:21:43;;;;;;;37.25;27.70;;;8.90;99.90;;;;;;5094604;28;20433;-51
2023/04/10 00:24:09;;;;;;;39.10;27.23;;;6.70;99.90;;;;;;5094430;28;20043;-49
2023/04/10 00:26:35;;;;;;;40.03;27.75;;;8.70;99.90;;;;;;5074594;28;20052;-47
2023/04/10 00:29:05;;;;;;;38.13;27.48;;;6.90;99.90;;;;;;5093752;27;20580;-47
2023/04/10 00:31:31;;;;;;;40.45;28.17;;;7.90;99.90;;;;;;5096734;27;20035;-51
2023/04/10 00:33:56;;;;;;;40.42;27.85;;;6.50;99.90;;;;;;5096680;27;21855;-47
2023/04/10 00:36:22;;;;;;;41.38;28.52;;;6.60;99.90;;;;;;5097457;28;20044;-50
2023/04/10 00:38:51;;;;;;;41.45;28.95;;;6.50;99.90;;;;;;5096780;27;20047;-51
2023/04/10 00:41:16;;;;;;;39.25;28.95;;;6.50;99.90;;;;;;5096400;28;20035;-51
2023/04/10 00:43:43;;;;;;;39.95;28.73;;;6.70;99.90;;;;;;5095690;27;20081;-51
2023/04/10 00:46:09;;;;;;;44.65;29.45;;;6.50;99.90;;;;;;5097485;27;20040;-49
2023/04/10 00:48:35;;;;;;;44.20;29.80;;;6.40;99.90;;;;;;5095695;28;20073;-48
2023/04/10 00:51:01;;;;;;;43.90;28.38;;;6.40;99.90;;;;;;5079057;28;20050;-50
2023/04/10 00:53:28;;;;;;;42.35;29.48;;;6.40;99.90;;;;;;5097679;27;20377;-48
2023/04/10 00:55:54;;;;;;;45.05;29.67;;;6.30;99.90;;;;;;5096260;27;20047;-48
2023/04/10 00:58:20;;;;;;;47.05;32.47;;;6.30;99.90;;;;;;5079201;28;20710;-52
2023/04/10 01:00:47;;;;;;;42.72;29.73;;;6.30;99.90;;;;;;5060135;27;20039;-50
2023/04/10 01:03:16;;;;;;;47.58;31.23;;;6.30;99.90;;;;;;5094924;27;20036;-47
2023/04/10 01:05:51;;;;;;;42.22;30.95;;;6.20;99.90;;;;;;5095296;27;20059;-49
2023/04/10 01:08:42;;;;;;;43.83;30.58;;;6.20;99.90;;;;;;5095819;27;20043;-49
2023/04/10 01:11:38;;;;;;;44.60;32.17;;;6.20;99.90;;;;;;5095191;27;20456;-50
2023/04/10 01:14:41;;;;;;;43.97;31.40;;;6.10;99.90;;;;;;5096347;27;20043;-48
2023/04/10 01:17:16;;;;;;;46.20;32.17;;;6.10;99.90;;;;;;5094688;27;20047;-45
2023/04/10 01:20:03;;;;;;;48.05;31.88;;;6.10;99.90;;;;;;5095950;27;20056;-49
2023/04/10 01:23:11;;;;;;;45.30;31.67;;;6.20;99.90;;;;;;5095940;28;20477;-48
2023/04/10 01:25:52;;;;;;;44.63;32.33;;;6.10;99.90;;;;;;5095538;27;20503;-49
2023/04/10 01:28:18;;;;;;;47.40;31.90;;;6.20;99.90;;;;;;5095853;27;20061;-50
2023/04/10 01:30:47;;;;;;;47.15;33.17;;;6.10;99.90;;;;;;5096819;27;20044;-48
2023/04/10 01:33:17;;;;;;;48.58;32.42;;;6.10;99.90;;;;;;5095236;27;20039;-48
2023/04/10 01:35:48;;;;;;;47.05;32.13;;;6.00;99.90;;;;;;5095706;27;20667;-50
2023/04/10 01:38:18;;;;;;;44.95;31.98;;;5.90;99.90;;;;;;5095387;27;20420;-47
2023/04/10 01:40:49;;;;;;;50.75;31.70;;;6.00;99.90;;;;;;5094034;27;20051;-46
2023/04/10 01:43:16;;;;;;;45.45;32.03;;;6.00;99.90;;;;;;5095199;28;21001;-46
2023/04/10 01:45:45;;;;;;;45.13;32.85;;;5.90;99.90;;;;;;5095049;28;20550;-49
2023/04/10 01:48:11;;;;;;;47.85;33.80;;;6.10;99.90;;;;;;5094244;27;20043;-48
2023/04/10 01:50:38;;;;;;;47.33;33.90;;;6.00;99.90;;;;;;5096930;27;20044;-47
2023/04/10 01:53:06;;;;;;;47.53;33.13;;;6.00;99.90;;;;;;5096856;27;20039;-48
2023/04/10 01:55:33;;;;;;;49.40;34.53;;;6.00;99.90;;;;;;5078163;27;20139;-47
2023/04/10 01:58:00;;;;;;;56.53;36.35;;;6.00;99.90;;;;;;5096131;27;20399;-46
2023/04/10 02:00:26;;;;;;;51.00;37.28;;;5.80;99.90;;;;;;5077378;27;20096;-46
2023/04/10 02:02:52;;;;;;;51.55;36.88;;;;;;;;;;5095684;27;20050;-46
2023/04/10 02:05:19;;;;;;;52.33;36.40;;;6.00;99.90;;;;;;5095993;27;20043;-47
2023/04/10 02:08:10;;;;;;;53.88;37.72;;;5.90;99.90;;;;;;5094570;28;20039;-46
2023/04/10 02:11:02;;;;;;;56.35;37.60;;;5.90;99.90;;;;;;5095482;27;20497;-47
2023/04/10 02:13:33;;;;;;;52.97;37.92;;;6.00;99.90;;;;;;5094099;27;20035;-47
2023/04/10 02:16:02;;;;;;;54.47;37.92;;;5.80;99.90;;;;;;5094612;27;20138;-46
2023/04/10 02:18:29;;;;;;;62.15;41.40;;;5.80;99.90;;;;;;5093609;27;21173;-46
2023/04/10 02:20:56;;;;;;;60.03;40.47;;;5.80;99.90;;;;;;5075900;27;20512;-51
2023/04/10 02:23:22;;;;;;;59.42;39.33;;;6.00;99.90;;;;;;5095113;27;20046;-50
2023/04/10 02:25:48;;;;;;;57.38;39.58;;;5.80;99.90;;;;;;5096023;27;20054;-52
2023/04/10 02:28:14;;;;;;;57.08;40.33;;;5.90;99.90;;;;;;5094098;27;20043;-50
2023/04/10 02:30:40;;;;;;;60.83;40.85;;;;;;;;;;5074335;28;20422;-52
2023/04/10 02:33:05;;;;;;;59.50;42.83;;;5.90;99.90;;;;;;5093462;27;20054;-51
2023/04/10 02:35:32;;;;;;;58.20;40.90;;;5.80;99.90;;;;;;5094035;27;20031;-50
2023/04/10 02:37:59;;;;;;;60.10;41.33;;;;;;;;;;5093796;27;20044;-49
2023/04/10 02:40:24;;;;;;;62.08;42.47;;;5.80;99.90;;;;;;5093696;27;20047;-47
2023/04/10 02:42:50;;;;;;;64.50;43.30;;;5.80;99.90;;;;;;5093271;27;20035;-48
2023/04/10 02:45:16;;;;;;;60.03;42.58;;;5.90;99.90;;;;;;5094768;28;20334;-50
2023/04/10 02:47:42;;;;;;;64.47;41.85;;;;;;;;;;5093395;28;20043;-50
2023/04/10 02:50:08;;;;;;;60.38;41.40;;;5.80;99.90;;;;;;5074946;28;20465;-50
2023/04/10 02:52:34;;;;;;;59.45;41.83;;;;;;;;;;5093571;28;20055;-47
2023/04/10 02:55:00;;;;;;;64.03;43.15;;;5.80;99.90;;;;;;5094936;28;20256;-52
2023/04/10 02:57:27;;;;;;;61.80;42.15;;;5.90;99.90;;;;;;5092958;28;20104;-49
2023/04/10 02:59:53;;;;;;;63.38;42.88;;;5.80;99.90;;;;;;5092893;28;20069;-50
2023/04/10 03:02:20;;;;;;;62.22;41.95;;;;;;;;;;5094365;28;20032;-51
2023/04/10 03:04:46;;;;;;;57.30;40.85;;;5.80;99.90;;;;;;5094036;28;20082;-55
2023/04/10 03:07:12;;;;;;;61.08;41.60;;;;;;;;;;5093441;28;20567;-46
2023/04/10 03:09:38;;;;;;;57.20;40.80;;;;;;;;;;5093490;28;20138;-47
2023/04/10 03:12:04;;;;;;;58.08;40.80;;;;;;;;;;5093566;28;20526;-49
2023/04/10 03:14:29;;;;;;;60.80;40.92;;;5.80;99.90;;;;;;5094931;28;20032;-48
2023/04/10 03:16:56;;;;;;;64.20;41.53;;;;;;;;;;5094266;28;20050;-49
2023/04/10 03:19:21;;;;;;;59.58;42.00;;;5.90;99.90;;;;;;5093381;28;20039;-46
2023/04/10 03:21:47;;;;;;;61.85;41.47;;;;;;;;;;5094147;28;20055;-50
2023/04/10 03:24:13;;;;;;;58.55;40.22;;;5.90;99.90;;;;;;5095313;28;20073;-47
2023/04/10 03:26:39;;;;;;;60.85;42.33;;;5.70;99.90;;;;;;5093707;28;20127;-49
2023/04/10 03:29:05;;;;;;;61.03;41.25;;;5.80;99.90;;;;;;5093286;28;20051;-46
2023/04/10 03:31:31;;;;;;;58.67;42.17;;;;;;;;;;5093407;28;20863;-46
2023/04/10 03:33:57;;;;;;;58.22;42.25;;;5.70;99.90;;;;;;5094033;28;20100;-47
2023/04/10 03:36:22;;;;;;;59.70;42.83;;;5.70;99.90;;;;;;5094001;28;20051;-50
2023/04/10 03:38:48;;;;;;;57.33;41.15;;;5.70;99.90;;;;;;5074419;28;20488;-47
2023/04/10 03:41:14;;;;;;;56.25;40.28;;;;;;;;;;5075847;28;20119;-46
2023/04/10 03:43:40;;;;;;;60.30;41.40;;;5.70;99.90;;;;;;5074379;28;20051;-47
2023/04/10 03:46:06;;;;;;;55.92;40.47;;;5.60;99.90;;;;;;5092489;28;20059;-47
2023/04/10 03:48:32;;;;;;;54.88;39.33;;;5.50;99.90;;;;;;5093475;28;20164;-49
2023/04/10 03:50:58;;;;;;;56.45;38.88;;;5.50;99.90;;;;;;5093529;28;20101;-47
2023/04/10 03:53:24;;;;;;;58.55;40.05;;;;;;;;;;5093854;28;20035;-49
2023/04/10 03:55:51;;;;;;;54.05;40.22;;;5.40;99.90;;;;;;5093309;28;20043;-46
2023/04/10 03:58:17;;;;;;;55.70;39.85;;;5.50;99.90;;;;;;5092811;28;20746;-47
2023/04/10 04:00:44;;;;;;;57.45;40.70;;;5.50;99.90;;;;;;5093356;28;20027;-47
2023/04/10 04:03:10;;;;;;;57.38;38.95;;;;;;;;;;5093052;28;20050;-47
2023/04/10 04:05:36;;;;;;;55.15;39.15;;;5.50;99.90;;;;;;5096169;27;20816;-51
2023/04/10 04:08:05;;;;;;;56.53;39.22;;;5.60;99.90;;;;;;5097470;27;20464;-47
2023/04/10 04:10:31;;;;;;;60.08;39.28;;;5.50;99.90;;;;;;5095890;27;20732;-47
2023/04/10 04:12:57;;;;;;;56.13;39.97;;;5.50;99.90;;;;;;5078416;28;20073;-47
2023/04/10 04:15:23;;;;;;;57.50;39.50;;;5.80;99.90;;;;;;5077868;28;20031;-48
2023/04/10 04:17:49;;;;;;;56.72;38.72;;;5.80;99.90;;;;;;5078287;28;20027;-46
2023/04/10 04:20:15;;;;;;;58.83;38.70;;;5.70;99.90;;;;;;5096181;27;20044;-48
2023/04/10 04:22:41;;;;;;;55.80;38.45;;;;;;;;;;5098490;27;20424;-48
2023/04/10 04:25:10;;;;;;;55.90;38.97;;;5.70;99.90;;;;;;5097355;27;20050;-46
2023/04/10 04:27:36;;;;;;;53.05;37.70;;;5.80;99.90;;;;;;5097371;27;20050;-49
2023/04/10 04:30:03;;;;;;;58.35;39.42;;;5.60;99.90;;;;;;5077928;28;20067;-46
2023/04/10 04:32:29;;;;;;;55.17;39.00;;;;;;;;;;5096291;27;20039;-51
2023/04/10 04:34:55;;;;;;;57.58;39.10;;;5.80;99.90;;;;;;5096213;27;20744;-49
2023/04/10 04:37:20;;;;;;;61.80;39.85;;;5.80;99.90;;;;;;5077704;27;20118;-47
2023/04/10 04:39:46;;;;;;;58.28;39.67;;;5.90;99.90;;;;;;5095477;27;20047;-49
2023/04/10 04:42:12;;;;;;;61.83;41.22;;;5.90;99.90;;;;;;5096253;27;20047;-46
2023/04/10 04:44:37;;;;;;;58.28;40.10;;;5.90;99.90;;;;;;5097370;27;20401;-51
2023/04/10 04:47:04;;;;;;;52.70;37.65;;;;;;;;;;5096266;27;20031;-46
2023/04/10 04:49:29;;;;;;;62.03;42.30;;;6.00;99.90;;;;;;5095805;27;20075;-46
2023/04/10 04:51:55;;;;;;;55.45;39.13;;;;;;;;;;5097915;27;20075;-48
2023/04/10 04:54:21;;;;;;;53.22;38.03;;;5.90;99.90;;;;;;5079594;28;20043;-50
2023/04/10 04:56:47;;;;;;;55.15;38.70;;;5.90;99.90;;;;;;5077946;28;20059;-48
2023/04/10 04:59:13;;;;;;;54.25;38.22;;;6.00;99.90;;;;;;5096162;27;20035;-47
2023/04/10 05:01:38;;;;;;;49.42;37.15;;;6.10;99.90;;;;;;5097248;27;20035;-48
2023/04/10 05:04:04;;;;;;;53.03;37.00;;;6.20;99.90;;;;;;5096712;27;20563;-46
2023/04/10 05:06:30;;;;;;;55.03;37.63;;;6.40;99.90;;;;;;5096145;27;20045;-46
2023/04/10 05:08:56;;;;;;;54.47;37.50;;;6.50;99.90;;;;;;5094628;27;20757;-48
2023/04/10 05:11:22;;;;;;;51.95;36.13;;;6.60;99.90;;;;;;5096657;27;20142;-47
2023/04/10 05:13:47;;;;;;;52.28;36.50;;;6.60;99.90;;;;;;5094720;27;20051;-49
2023/04/10 05:16:13;;;;;;;53.35;36.25;;;6.60;99.90;;;;;;5094885;27;20039;-49
2023/04/10 05:18:40;;;;;;;50.58;35.88;;;6.70;99.90;;;;;;5094790;27;20496;-46
2023/04/10 05:21:06;;;;;;;50.33;35.33;;;;;;;;;;5094979;27;20464;-46
2023/04/10 05:23:32;;;;;;;51.67;35.70;;;6.60;99.90;;;;;;5096035;27;20036;-46
2023/04/10 05:25:58;;;;;;;48.05;33.53;;;6.70;99.90;;;;;;5095269;27;20047;-46
2023/04/10 05:28:24;;;;;;;48.45;35.28;;;6.80;99.90;;;;;;5094480;27;20132;-49
2023/04/10 05:30:49;;;;;;;51.53;35.67;;;6.90;99.90;;;;;;5095006;28;20062;-47
2023/04/10 05:33:15;;;;;;;47.75;34.58;;;6.90;99.90;;;;;;5094097;27;20051;-48
2023/04/10 05:35:41;;;;;;;50.05;34.88;;;6.90;99.90;;;;;;5095145;27;20084;-48
2023/04/10 05:38:07;;;;;;;44.63;31.83;;;;;;;;;;5094235;27;20244;-49
2023/04/10 05:40:32;;;;;;;47.67;32.88;;;7.10;99.90;;;;;;5096045;27;20108;-48
2023/04/10 05:42:58;;;;;;;44.15;31.58;;;7.10;99.90;;;;;;5094572;27;20069;-50
2023/04/10 05:45:24;;;;;;;42.65;30.55;;;7.10;99.90;;;;;;5094062;27;20043;-50
2023/04/10 05:47:50;;;;;;;40.33;29.15;;;7.30;99.90;;;;;;5094823;27;20507;-54
2023/04/10 05:50:15;;;;;;;45.45;31.55;;;7.30;99.90;;;;;;5093836;27;20039;-52
2023/04/10 05:52:41;;;;;;;45.42;30.60;;;7.30;99.90;;;;;;5093933;28;20032;-50
2023/04/10 05:55:07;;;;;;;53.80;30.10;;;7.50;99.90;;;;;;5094833;27;20093;-47
2023/04/10 05:57:33;;;;;;;41.72;30.08;;;7.50;99.90;;;;;;5095276;27;20067;-50
2023/04/10 05:59:59;;;;;;;43.80;29.75;;;7.60;99.90;;;;;;5095412;27;20506;-50
2023/04/10 06:02:26;;;;;;;41.25;29.20;;;7.70;99.90;;;;;;5094563;27;20142;-50
2023/04/10 06:04:51;;;;;;;41.92;29.95;;;7.90;99.90;;;;;;5093471;27;20175;-48
2023/04/10 06:07:17;;;;;;;41.55;30.42;;;8.00;99.90;;;;;;5095820;27;20058;-50
2023/04/10 06:09:43;;;;;;;41.95;30.20;;;8.20;99.90;;;;;;5094897;27;20046;-52
2023/04/10 06:12:08;;;;;;;43.17;30.42;;;8.50;99.90;;;;;;5094940;27;20043;-51
2023/04/10 06:14:34;;;;;;;40.92;29.80;;;8.80;99.90;;;;;;5094771;27;20774;-50
2023/04/10 06:17:00;;;;;;;38.95;28.40;;;9.00;99.90;;;;;;5095136;27;20039;-49
2023/04/10 06:19:26;;;;;;;42.35;28.23;;;9.40;99.90;;;;;;5094225;27;20089;-49
2023/04/10 06:21:52;;;;;;;38.53;27.90;;;9.90;99.90;;;;;;5093973;27;20070;-50
2023/04/10 06:24:18;;;;;;;39.75;29.23;;;10.30;99.90;;;;;;5096927;27;20031;-50
2023/04/10 06:26:44;;;;;;;35.13;26.05;;;10.60;99.90;;;;;;5094067;27;20061;-52
2023/04/10 06:29:10;;;;;;;36.40;26.08;;;10.40;99.90;;;;;;5094332;27;20035;-51
2023/04/10 06:31:36;;;;;;;36.85;27.25;;;10.60;99.90;;;;;;5093927;27;20459;-53
2023/04/10 06:34:01;;;;;;;33.22;25.30;;;10.60;99.90;;;;;;5094978;27;20050;-51
2023/04/10 06:36:27;;;;;;;34.97;26.45;;;9.30;99.90;;;;;;5093527;27;20504;-49
2023/04/10 06:38:53;;;;;;;37.22;24.67;;;11.10;99.90;;;;;;5093629;27;20051;-52
2023/04/10 06:41:19;;;;;;;33.25;25.63;;;11.00;99.90;;;;;;5093070;27;20134;-52
2023/04/10 06:43:45;;;;;;;35.30;25.67;;;11.20;99.90;;;;;;5075250;28;20099;-50
2023/04/10 06:46:11;;;;;;;34.05;24.45;;;11.60;99.90;;;;;;5094454;27;20058;-52
2023/04/10 06:48:37;;;;;;;31.30;23.52;;;14.30;99.90;;;;;;5093858;27;20644;-51
2023/04/10 06:51:03;;;;;;;31.63;23.52;;;13.00;99.90;;;;;;5093827;27;20538;-50
2023/04/10 06:53:29;;;;;;;34.83;25.23;;;13.70;99.90;;;;;;5093740;28;20036;-52
2023/04/10 06:55:55;;;;;;;30.35;22.45;;;13.80;99.90;;;;;;5094435;27;20140;-51
2023/04/10 06:58:21;;;;;;;31.83;24.20;;;13.50;99.90;;;;;;5093796;28;20043;-50
2023/04/10 07:00:47;;;;;;;32.20;24.27;;;12.90;99.90;;;;;;5092596;27;20404;-51
2023/04/10 07:03:12;;;;;;;30.58;23.60;;;12.40;99.90;;;;;;5092351;28;20036;-49
2023/04/10 07:05:38;;;;;;;29.85;22.45;;;12.40;99.90;;;;;;5093971;27;20043;-51
2023/04/10 07:08:04;;;;;;;32.90;22.55;;;12.90;99.90;;;;;;5094108;28;20099;-52
2023/04/10 07:10:30;;;;;;;32.00;22.75;;;13.40;99.90;;;;;;5093167;28;20138;-50
2023/04/10 07:12:57;;;;;;;29.23;23.15;;;13.60;99.90;;;;;;5093747;28;20076;-52
2023/04/10 07:15:23;;;;;;;28.00;22.10;;;13.80;99.90;;;;;;5092556;28;20040;-53
2023/04/10 07:17:49;;;;;;;30.80;23.35;;;14.10;99.90;;;;;;5094208;28;20051;-50
2023/04/10 07:20:15;;;;;;;28.70;22.65;;;14.20;99.90;;;;;;5092616;28;20047;-51
2023/04/10 07:22:41;;;;;;;31.10;23.30;;;14.50;99.90;;;;;;5093567;28;20154;-51
2023/04/10 07:25:07;;;;;;;31.00;23.60;;;15.00;99.90;;;;;;5093771;28;20064;-51
2023/04/10 07:27:33;;;;;;;29.40;23.58;;;15.30;99.90;;;;;;5059096;28;20583;-49
2023/04/10 07:29:58;;;;;;;29.42;23.85;;;15.50;99.90;;;;;;5094400;28;20201;-50
2023/04/10 07:32:24;;;;;;;28.15;22.90;;;15.50;99.90;;;;;;5093274;28;20387;-51
2023/04/10 07:34:50;;;;;;;30.40;24.23;;;15.40;99.90;;;;;;5092190;28;20039;-52
2023/04/10 07:37:16;;;;;;;31.98;23.38;;;15.10;99.90;;;;;;5092832;28;20081;-50
2023/04/10 07:39:43;;;;;;;30.70;24.08;;;15.20;99.90;;;;;;5095784;28;20074;-52
2023/04/10 07:42:12;;;;;;;30.17;24.67;;;15.20;99.90;;;;;;5096595;27;20039;-48
2023/04/10 07:44:38;;;;;;;33.72;25.40;;;15.30;99.90;;;;;;5096824;27;20063;-53
2023/04/10 07:47:03;;;;;;;31.73;24.83;;;15.30;99.90;;;;;;5096286;27;20070;-49
2023/04/10 07:49:29;;;;;;;30.08;24.10;;;15.50;99.90;;;;;;5096763;27;20710;-50
2023/04/10 07:51:55;;;;;;;28.85;22.88;;;15.30;99.90;;;;;;5099178;27;20047;-52
2023/04/10 07:54:21;;;;;;;29.95;23.08;;;15.40;99.90;;;;;;5098485;27;20492;-50
2023/04/10 07:56:46;;;;;;;30.27;23.60;;;15.40;99.90;;;;;;5098213;27;20055;-51
2023/04/10 07:59:12;;;;;;;31.00;23.08;;;15.20;99.90;;;;;;5078961;28;20092;-52
2023/04/10 08:01:38;;;;;;;31.30;24.88;;;15.00;99.90;;;;;;5097856;27;20051;-50
2023/04/10 08:04:04;;;;;;;30.13;22.73;;;14.60;99.90;;;;;;5096845;27;20591;-48
2023/04/10 08:06:31;;;;;;;29.45;22.85;;;14.50;99.90;;;;;;5096798;27;20027;-51
2023/04/10 08:08:56;;;;;;;31.02;22.55;;;14.40;99.90;;;;;;5097873;27;20126;-48
2023/04/10 08:11:31;;;;;;;31.65;23.05;;;14.50;99.90;;;;;;5098365;27;20126;-49
2023/04/10 08:14:01;;;;;;;28.23;23.00;;;14.30;99.90;;;;;;5097961;27;20050;-49
2023/04/10 08:16:29;;;;;;;28.05;22.60;;;14.40;99.90;;;;;;5097567;27;20035;-52
2023/04/10 08:18:56;;;;;;;28.50;21.17;;;14.70;99.90;;;;;;5096293;27;20047;-50
2023/04/10 08:21:23;;;;;;;28.60;23.13;;;15.20;99.90;;;;;;5096106;27;20035;-52
2023/04/10 08:23:50;;;;;;;29.15;23.52;;;15.20;99.90;;;;;;5096730;27;20042;-47
2023/04/10 08:26:16;;;;;;;28.75;21.75;;;17.00;99.90;;;;;;5098310;27;20079;-48
2023/04/10 08:28:46;;;;;;;29.83;22.10;;;15.50;99.90;;;;;;5097852;27;20946;-47
2023/04/10 08:31:13;;;;;;;29.42;20.77;;;15.30;99.90;;;;;;5096770;27;20049;-47
2023/04/10 08:33:38;;;;;;;27.10;21.00;;;15.10;99.90;;;;;;5095753;27;20077;-47
2023/04/10 08:36:05;;;;;;;28.00;21.33;;;15.20;99.90;;;;;;5096119;27;20423;-48
2023/04/10 08:38:30;;;;;;;26.70;19.73;;;14.90;99.90;;;;;;5096261;27;20188;-49
2023/04/10 08:40:57;;;;;;;24.48;19.33;;;14.60;99.90;;;;;;5078471;28;20059;-48
2023/04/10 08:43:24;;;;;;;25.67;19.88;;;14.50;99.90;;;;;;5078095;28;20057;-51
2023/04/10 08:45:51;;;;;;;24.27;18.95;;;14.30;99.90;;;;;;5076848;28;20142;-45
2023/04/10 08:48:21;;;;;;;24.65;18.58;;;14.70;99.90;;;;;;5095828;27;20146;-47
2023/04/10 08:50:48;;;;;;;23.15;18.15;;;15.00;99.90;;;;;;5095894;27;20051;-48
2023/04/10 08:53:15;;;;;;;23.92;18.15;;;14.80;99.90;;;;;;5095780;27;20616;-51
2023/04/10 08:55:42;;;;;;;23.50;17.88;;;14.80;99.90;;;;;;5098494;27;20058;-49
2023/04/10 08:58:10;;;;;;;23.23;17.50;;;15.90;99.90;;;;;;5097079;27;20050;-48
2023/04/10 09:00:39;;;;;;;21.73;16.90;;;14.30;99.90;;;;;;5096584;27;20078;-48
2023/04/10 09:03:10;;;;;;;20.58;16.88;;;14.40;99.90;;;;;;5096526;27;20040;-50
2023/04/10 09:05:36;;;;;;;20.67;16.05;;;14.70;99.90;;;;;;5095836;27;20115;-47
2023/04/10 09:08:07;;;;;;;20.50;16.13;;;15.10;99.90;;;;;;5095602;27;20047;-46
2023/04/10 09:10:32;;;;;;;20.75;15.88;;;15.20;99.90;;;;;;5094820;27;20077;-46
2023/04/10 09:12:58;;;;;;;20.30;16.13;;;15.20;99.90;;;;;;5078904;28;20043;-48
2023/04/10 09:15:24;;;;;;;21.98;15.77;;;15.20;99.90;;;;;;5094268;28;20089;-48
2023/04/10 09:18:01;;;;;;;21.08;16.95;;;15.10;99.90;;;;;;5096340;27;20039;-49
2023/04/10 09:20:32;;;;;;;20.27;15.48;;;15.00;99.90;;;;;;5095134;27;20070;-50
2023/04/10 09:22:57;;;;;;;18.20;15.05;;;14.80;99.90;;;;;;5096185;27;20107;-48
2023/04/10 09:25:33;;;;;;;18.92;15.48;;;14.70;99.90;;;;;;5096145;27;20588;-50
2023/04/10 09:28:06;;;;;;;17.90;14.07;;;14.80;99.90;;;;;;5097507;27;20097;-47
2023/04/10 09:30:35;;;;;;;18.65;14.05;;;15.00;99.90;;;;;;5096252;27;20051;-48
2023/04/10 09:33:01;;;;;;;19.08;14.32;;;15.10;99.90;;;;;;5077709;27;20306;-52
2023/04/10 09:35:38;;;;;;;17.73;13.52;;;15.20;99.90;;;;;;5094808;27;20365;-49
2023/04/10 09:38:17;;;;;;;16.98;13.07;;;15.70;99.90;;;;;;5095690;27;20105;-51
2023/04/10 09:40:44;;;;;;;15.50;11.85;;;15.50;99.90;;;;;;5094885;27;20411;-49
2023/04/10 09:43:24;;;;;;;17.73;13.13;;;15.40;99.90;;;;;;5095357;27;20462;-52
2023/04/10 09:45:52;;;;;;;16.98;13.18;;;15.30;99.90;;;;;;5095133;27;20189;-47
2023/04/10 09:48:19;;;;;;;19.63;13.88;;;15.10;99.90;;;;;;5093662;28;20135;-51
2023/04/10 09:50:45;;;;;;;18.20;12.07;;;15.00;99.90;;;;;;5095173;27;20698;-50
2023/04/10 09:53:13;;;;;;;15.32;11.93;;;15.10;99.90;;;;;;5093833;27;20044;-49
2023/04/10 09:55:41;;;;;;;16.13;12.70;;;15.10;99.90;;;;;;5096267;27;20074;-48
2023/04/10 09:58:07;;;;;;;16.30;12.15;;;15.00;99.90;;;;;;5096166;27;20047;-50
2023/04/10 10:00:41;;;;;;;14.55;11.00;;;15.10;99.90;;;;;;5094459;28;20055;-49
2023/04/10 10:03:25;;;;;;;15.70;10.70;;;15.10;99.90;;;;;;5093826;28;20047;-47
2023/04/10 10:05:51;;;;;;;12.48;10.05;;;15.30;99.90;;;;;;5094560;27;20075;-48
2023/04/10 10:08:17;;;;;;;13.93;10.43;;;15.50;99.90;;;;;;5095618;27;20641;-50
2023/04/10 10:10:50;;;;;;;12.50;10.10;;;15.40;99.90;;;;;;5093883;28;20054;-49
2023/04/10 10:13:40;;;;;;;12.95;10.30;;;15.30;99.90;;;;;;5093549;27;20088;-52
2023/04/10 10:16:21;;;;;;;13.07;10.45;;;15.30;99.90;;;;;;5094364;27;20043;-48
2023/04/10 10:18:58;;;;;;;13.63;10.35;;;15.00;99.90;;;;;;5095245;27;20047;-47
2023/04/10 10:21:26;;;;;;;13.85;10.77;;;14.90;99.90;;;;;;5094108;28;20059;-46
2023/04/10 10:23:56;;;;;;;11.27;9.00;;;14.80;99.90;;;;;;5094339;27;20637;-47
2023/04/10 10:26:23;;;;;;;11.80;9.57;;;15.00;99.90;;;;;;5096331;27;20488;-45
2023/04/10 10:28:53;;;;;;;12.30;9.35;;;14.90;99.90;;;;;;5094681;28;20051;-45
2023/04/10 10:31:21;;;;;;;11.00;8.80;;;15.00;99.90;;;;;;5077898;28;20473;-47
2023/04/10 10:33:47;;;;;;;11.00;8.73;;;14.60;99.90;;;;;;5095094;27;20093;-49
2023/04/10 10:36:15;;;;;;;14.27;9.55;;;14.40;99.90;;;;;;5076429;28;20040;-47
2023/04/10 10:38:51;;;;;;;11.43;8.18;;;14.40;99.90;;;;;;5094212;27;20074;-47
2023/04/10 10:41:26;;;;;;;11.38;8.88;;;14.40;99.90;;;;;;5095369;27;20043;-51
2023/04/10 10:44:07;;;;;;;11.02;8.30;;;14.30;99.90;;;;;;5095270;27;20051;-47
2023/04/10 10:46:57;;;;;;;12.05;9.13;;;14.30;99.90;;;;;;5094540;27;20132;-46
2023/04/10 10:49:53;;;;;;;10.80;8.65;;;14.30;99.90;;;;;;5093297;27;20035;-48
2023/04/10 10:52:51;;;;;;;14.57;8.25;;;14.40;99.90;;;;;;5094069;27;20039;-49
2023/04/10 10:55:27;;;;;;;11.23;9.05;;;14.50;99.90;;;;;;5093665;27;20039;-46
2023/04/10 10:58:04;;;;;;;10.90;8.10;;;14.50;99.90;;;;;;5093644;28;20772;-47
2023/04/10 11:00:48;;;;;;;12.77;9.68;;;14.50;99.90;;;;;;5094792;27;20035;-48
2023/04/10 11:03:14;;;;;;;13.35;8.73;;;14.80;99.90;;;;;;5093039;27;20039;-49
2023/04/10 11:05:51;;;;;;;10.95;8.90;;;14.90;99.90;;;;;;5092828;27;20376;-48
2023/04/10 11:08:17;;;;;;;13.45;9.43;;;14.80;99.90;;;;;;5092837;27;20462;-46
2023/04/10 11:11:00;;;;;;;11.15;8.25;;;15.00;99.90;;;;;;5075012;28;20070;-48
2023/04/10 11:13:25;;;;;;;9.70;7.65;;;15.40;99.90;;;;;;5092621;28;20460;-49
2023/04/10 11:15:51;;;;;;;10.07;7.82;;;15.30;99.90;;;;;;5093204;27;20051;-46
2023/04/10 11:18:19;;;;;;;10.35;7.38;;;15.10;99.90;;;;;;5073531;28;20458;-47
2023/04/10 11:21:08;;;;;;;10.48;7.78;;;15.20;99.90;;;;;;5093462;28;20562;-50
2023/04/10 11:23:34;;;;;;;10.00;7.35;;;15.10;99.90;;;;;;5092792;28;20078;-45
2023/04/10 11:26:01;;;;;;;11.82;6.78;;;17.00;99.90;;;;;;5095293;28;20430;-46
2023/04/10 11:28:36;;;;;;;11.45;7.25;;;15.40;99.90;;;;;;5075460;28;20047;-48
2023/04/10 11:31:21;;;;;;;8.07;6.38;;;15.10;99.90;;;;;;5092374;28;20731;-48
2023/04/10 11:33:58;;;;;;;9.00;6.40;;;14.80;99.90;;;;;;5074211;28;20055;-46
2023/04/10 11:36:25;;;;;;;9.50;5.70;;;14.90;99.90;;;;;;5093333;28;20050;-49
2023/04/10 11:38:57;;;;;;;10.23;6.68;;;14.90;99.90;;;;;;5094231;28;20043;-49
2023/04/10 11:41:31;;;;;;;9.63;6.78;;;15.10;99.90;;;;;;5094549;28;20436;-51
2023/04/10 11:43:59;;;;;;;9.00;5.70;;;14.90;99.90;;;;;;5092847;28;20040;-48
2023/04/10 11:46:25;;;;;;;9.10;6.22;;;15.00;99.90;;;;;;5094757;28;20075;-49
2023/04/10 11:49:02;;;;;;;8.73;5.90;;;14.80;99.90;;;;;;5094805;28;20751;-47
2023/04/10 11:51:28;;;;;;;7.85;5.43;;;15.40;99.90;;;;;;5092889;28;20043;-46
2023/04/10 11:54:13;;;;;;;8.20;5.47;;;15.70;99.90;;;;;;5075732;28;20415;-48
2023/04/10 11:56:44;;;;;;;8.10;5.60;;;15.90;99.90;;;;;;5095523;28;20361;-45
2023/04/10 11:59:12;;;;;;;9.25;5.53;;;15.80;99.90;;;;;;5093565;28;20047;-46
2023/04/10 12:01:41;;;;;;;7.43;5.60;;;16.00;99.90;;;;;;5093995;28;20090;-47
2023/04/10 12:04:14;;;;;;;7.65;5.32;;;16.10;99.90;;;;;;5058090;28;20072;-47
2023/04/10 12:06:50;;;;;;;10.55;5.38;;;16.40;99.90;;;;;;5093461;28;20043;-46
2023/04/10 12:09:18;;;;;;;7.82;5.05;;;16.50;99.90;;;;;;5093923;28;20044;-47
2023/04/10 12:11:52;;;;;;;7.55;4.82;;;16.70;99.90;;;;;;5094304;28;20047;-49
2023/04/10 12:14:20;;;;;;;8.48;5.20;;;16.90;99.90;;;;;;5093950;28;20035;-45
2023/04/10 12:16:47;;;;;;;9.70;5.22;;;16.90;99.90;;;;;;5093568;28;20493;-47
2023/04/10 12:19:15;;;;;;;6.82;4.50;;;17.00;99.90;;;;;;5092369;28;20036;-46
2023/04/10 12:21:44;;;;;;;6.78;4.00;;;17.30;99.90;;;;;;5092644;28;20054;-49
2023/04/10 12:24:11;;;;;;;6.82;4.57;;;17.00;99.90;;;;;;5091619;28;20035;-46
2023/04/10 12:26:37;;;;;;;8.25;4.70;;;16.80;99.90;;;;;;5095743;27;20052;-47
2023/04/10 12:29:05;;;;;;;7.97;4.35;;;16.70;99.90;;;;;;5097069;27;20044;-45
2023/04/10 12:31:35;;;;;;;7.57;4.60;;;16.50;99.90;;;;;;5096781;27;20043;-48
2023/04/10 12:34:04;;;;;;;8.55;4.88;;;16.20;99.90;;;;;;5077805;28;20872;-48
2023/04/10 12:36:33;;;;;;;9.23;4.63;;;16.00;99.90;;;;;;5077061;28;20035;-45
2023/04/10 12:39:00;;;;;;;8.02;4.80;;;15.90;99.90;;;;;;5095365;28;20442;-47
2023/04/10 12:41:29;;;;;;;9.70;4.97;;;15.80;99.90;;;;;;5094596;27;20105;-47
2023/04/10 12:44:12;;;;;;;6.63;4.53;;;15.60;99.90;;;;;;5094958;27;20965;-47
2023/04/10 12:46:39;;;;;;;8.98;5.25;;;15.60;99.90;;;;;;5095280;28;20093;-46
2023/04/10 12:49:12;;;;;;;9.05;4.63;;;15.60;99.90;;;;;;5094927;27;20054;-48